Terminal Aerodrome Forecast
Issued by NWS Newport/Morehead City, NC

Home | Current Version | Previous Version | Text Only | Print | Product List | Glossary Off
Versions: 1 2 3 4 5 6 7 8 9 10 11 12 13 14 15

000
FTUS42 KMHX 182340
TAFEWN
TAF
KEWN 182340Z 1900/1924 35010KT P6SM OVC050
      TEMPO 1903/1906 BKN025
     FM190600 33009KT P6SM BKN015
     FM191300 32010KT P6SM BKN020
     FM191500 32011KT P6SM SCT025
     FM192300 31006KT P6SM FEW250=

USA.gov is the U.S. government's official web portal to all federal, state and local government web resources and services.